.
WxDataArchive / Data Records for 2014-02-27
2014-02-26 February 2014 2014-02-28

Data Records for Thursday, 27 February 2014

Time	Temp	Chill	HIndex	Humid	Dewpt	 Wind 	HiWind	WindDir	Rain 	Barom
-----	----	-----	------	-----	-----	------	------	-------	-----	-----
00:00	14.1	14.1	14.1	63	3.9	2	9	248	0.00	29.745 
00:05	14.1	14.1	14.1	63	3.9	2	5	248	0.00	29.745 
00:10	14.1	14.1	14.1	63	3.9	2	7	248	0.00	29.745 
00:15	14.1	14.1	14.1	63	3.9	1	6	248	0.00	29.728 
00:20	14.1	14.1	14.1	63	3.9	2	6	248	0.00	29.728 
00:25	14.3	14.3	14.3	62	3.7	2	9	248	0.00	29.728 
00:30	14.3	14.3	14.3	62	3.7	2	13	248	0.00	29.717 
00:35	14.4	14.4	14.4	62	3.8	3	7	248	0.00	29.717 
00:40	14.4	14.4	14.4	61	3.4	2	9	248	0.00	29.717 
00:45	14.4	14.4	14.4	61	3.4	2	7	248	0.00	29.708 
00:50	14.6	14.6	14.6	61	3.6	3	7	248	0.00	29.708 
00:55	14.8	14.8	14.8	60	3.5	3	7	248	0.00	29.708 
01:00	14.9	14.9	14.9	59	3.2	3	9	248	0.00	29.697 
01:05	15.1	15.1	15.1	59	3.4	2	10	248	0.00	29.697 
01:10	14.9	14.9	14.9	59	3.2	1	7	248	0.00	29.697 
01:15	15.1	15.1	15.1	59	3.4	2	6	248	0.00	29.687 
01:20	15.2	15.2	15.2	58	3.1	2	6	248	0.00	29.687 
01:25	15.2	15.2	15.2	58	3.1	2	7	248	0.00	29.687 
01:30	15.6	15.6	15.6	57	3.1	3	7	248	0.00	29.674 
01:35	15.6	15.6	15.6	57	3.1	2	7	248	0.00	29.674 
01:40	15.7	15.7	15.7	56	2.8	2	6	248	0.00	29.674 
01:45	15.9	15.9	15.9	56	3.0	3	7	248	0.00	29.665 
01:50	16.1	16.1	16.1	55	2.8	2	9	248	0.00	29.665 
01:55	16.1	16.1	16.1	55	2.8	2	6	248	0.00	29.665 
02:00	16.2	16.2	16.2	55	2.9	2	7	248	0.00	29.666 
02:05	16.4	16.4	16.4	55	3.1	3	10	248	0.00	29.666 
02:10	16.4	16.4	16.4	55	3.1	2	6	248	0.00	29.666 
02:15	16.5	16.5	16.5	55	3.2	2	5	248	0.00	29.655 
02:20	16.5	16.5	16.5	55	3.2	2	9	225	0.00	29.655 
02:25	16.7	10.4	16.7	55	3.4	4	11	248	0.00	29.655 
02:30	16.9	16.9	16.9	55	3.6	3	12	248	0.00	29.653 
02:35	17.0	17.0	17.0	55	3.7	3	11	248	0.00	29.653 
02:40	17.2	11.0	17.2	56	4.2	4	12	248	0.00	29.653 
02:45	17.2	11.0	17.2	56	4.2	4	10	248	0.00	29.643 
02:50	17.2	17.2	17.2	57	4.6	3	9	248	0.00	29.643 
02:55	17.2	17.2	17.2	58	5.0	3	7	248	0.00	29.643 
03:00	17.2	17.2	17.2	58	5.0	3	9	248	0.00	29.640 
03:05	17.2	17.2	17.2	58	5.0	3	7	248	0.00	29.640 
03:10	17.3	17.3	17.3	59	5.5	3	10	248	0.00	29.640 
03:15	17.5	17.5	17.5	60	6.0	3	10	248	0.00	29.630 
03:20	17.5	11.3	17.5	61	6.4	4	9	270	0.00	29.630 
03:25	17.5	17.5	17.5	62	6.7	3	6	248	0.00	29.630 
03:30	17.7	17.7	17.7	62	6.9	3	10	248	0.00	29.629 
03:35	18.0	18.0	18.0	63	7.6	3	9	248	0.00	29.629 
03:40	18.1	12.0	18.1	63	7.7	4	12	248	0.00	29.629 
03:45	18.4	11.1	18.4	62	7.6	5	9	270	0.00	29.628 
03:50	18.6	12.6	18.6	62	7.8	4	9	270	0.00	29.628 
03:55	18.6	11.3	18.6	62	7.8	5	12	270	0.00	29.628 
04:00	18.6	11.3	18.6	62	7.8	5	11	270	0.00	29.627 
04:05	18.6	10.3	18.6	61	7.4	6	16	270	0.00	29.627 
04:10	18.3	9.9	18.3	66	8.9	6	11	270	0.00	29.627 
04:15	17.8	11.7	17.8	71	10.0	4	11	270	0.00	29.639 
04:20	17.3	11.1	17.3	72	9.8	4	9	270	0.00	29.639 
04:25	17.3	17.3	17.3	71	9.5	2	4	270	0.00	29.639 
04:30	17.2	17.2	17.2	69	8.8	2	6	248	0.00	29.644 
04:35	17.2	17.2	17.2	67	8.2	3	7	270	0.00	29.644 
04:40	17.3	11.1	17.3	67	8.3	4	7	270	0.00	29.644 
04:45	17.3	17.3	17.3	67	8.3	3	6	248	0.00	29.655 
04:50	17.3	17.3	17.3	67	8.3	3	6	270	0.00	29.655 
04:55	17.5	17.5	17.5	66	8.1	3	5	270	0.00	29.655 
05:00	17.5	17.5	17.5	65	7.8	3	7	270	0.00	29.658 
05:05	17.5	17.5	17.5	65	7.8	3	7	270	0.00	29.658 
05:10	17.5	17.5	17.5	65	7.8	3	7	248	0.00	29.658 
05:15	17.3	9.8	17.3	67	8.3	5	10	270	0.00	29.673 
05:20	17.0	17.0	17.0	70	8.9	3	6	270	0.00	29.673 
05:25	16.9	16.9	16.9	71	9.2	3	6	270	0.00	29.673 
05:30	16.9	16.9	16.9	72	9.5	3	13	270	0.00	29.676 
05:35	16.9	16.9	16.9	73	9.8	3	9	270	0.00	29.676 
05:40	16.7	10.4	16.7	73	9.6	4	11	270	0.00	29.676 
05:45	16.4	10.1	16.4	74	9.6	4	9	270	0.00	29.692 
05:50	16.1	9.7	16.1	74	9.3	4	9	270	0.00	29.692 
05:55	15.9	15.9	15.9	73	8.8	3	9	270	0.00	29.692 
06:00	15.9	15.9	15.9	72	8.5	3	7	270	0.00	29.696 
06:05	16.1	16.1	16.1	71	8.4	3	12	270	0.00	29.696 
06:10	15.9	9.5	15.9	70	7.9	4	9	270	0.00	29.696 
06:15	15.9	8.2	15.9	69	7.6	5	10	270	0.00	29.709 
06:20	15.7	15.7	15.7	69	7.4	3	7	270	0.00	29.709 
06:25	15.7	15.7	15.7	69	7.4	3	7	270	0.00	29.709 
06:30	15.7	9.2	15.7	70	7.7	4	9	270	0.00	29.719 
06:35	15.4	7.6	15.4	73	8.3	5	11	292	0.00	29.719 
06:40	14.3	6.3	14.3	76	8.1	5	18	292	0.00	29.719 
06:45	13.8	7.1	13.8	77	7.9	4	13	315	0.00	29.743 
06:50	13.3	5.1	13.3	78	7.7	5	11	292	0.00	29.743 
06:55	13.1	13.1	13.1	80	8.1	3	7	292	0.00	29.743 
07:00	13.1	13.1	13.1	81	8.4	2	5	270	0.00	29.760 
07:05	12.9	12.9	12.9	81	8.2	3	6	292	0.00	29.760 
07:10	12.8	12.8	12.8	80	7.8	3	7	292	0.00	29.760 
07:15	12.4	12.4	12.4	77	6.6	3	11	292	0.00	29.776 
07:20	12.3	5.3	12.3	76	6.2	4	10	292	0.00	29.776 
07:25	12.1	12.1	12.1	75	5.7	3	9	292	0.00	29.776 
07:30	12.1	5.1	12.1	76	6.0	4	10	270	0.00	29.791 
07:35	11.9	11.9	11.9	78	6.4	3	7	292	0.00	29.791 
07:40	11.6	11.6	11.6	79	6.4	3	9	270	0.00	29.791 
07:45	11.4	11.4	11.4	79	6.2	3	9	292	0.00	29.807 
07:50	11.4	4.3	11.4	79	6.2	4	11	338	0.00	29.807 
07:55	11.4	11.4	11.4	79	6.2	3	10	315	0.00	29.807 
08:00	11.2	11.2	11.2	80	6.3	3	9	292	0.00	29.824 
08:05	11.1	3.9	11.1	81	6.4	4	11	292	0.00	29.824 
08:10	10.9	10.9	10.9	81	6.2	3	9	292	0.00	29.824 
08:15	10.7	3.5	10.7	82	6.3	4	11	338	0.00	29.841 
08:20	10.7	3.5	10.7	82	6.3	4	11	338	0.00	29.841 
08:25	10.5	10.5	10.5	82	6.1	3	7	292	0.00	29.841 
08:30	10.5	10.5	10.5	82	6.1	3	7	292	0.00	29.856 
08:35	10.7	10.7	10.7	82	6.3	2	5	292	0.00	29.856 
08:40	10.7	10.7	10.7	82	6.3	2	5	315	0.00	29.856 
08:45	10.7	10.7	10.7	82	6.3	2	7	292	0.00	29.872 
08:50	10.7	10.7	10.7	82	6.3	2	9	292	0.00	29.872 
08:55	10.7	10.7	10.7	82	6.3	2	4	270	0.00	29.872 
09:00	10.5	10.5	10.5	81	5.8	3	9	270	0.00	29.885 
09:05	10.4	10.4	10.4	79	5.2	3	9	292	0.00	29.885 
09:10	10.5	10.5	10.5	76	4.5	3	7	270	0.00	29.885 
09:15	10.4	1.7	10.4	76	4.4	5	11	270	0.00	29.904 
09:20	10.0	2.7	10.0	76	4.0	4	7	292	0.00	29.904 
09:25	9.9	9.9	9.9	74	3.3	3	7	292	0.00	29.904 
09:30	10.2	10.2	10.2	73	3.3	3	8	270	0.00	29.918 
09:35	10.4	10.4	10.4	71	2.9	3	11	270	0.00	29.918 
09:40	10.5	3.2	10.5	67	1.7	4	9	270	0.00	29.918 
09:45	10.4	1.7	10.4	65	1.0	5	11	270	0.00	29.923 
09:50	10.7	3.5	10.7	62	0.3	4	9	270	0.00	29.923 
09:55	10.7	3.5	10.7	62	0.3	4	10	315	0.00	29.923 
10:00	10.7	2.1	10.7	62	0.3	5	13	270	0.00	29.937 
10:05	10.7	2.1	10.7	61	-0.1	5	14	270	0.00	29.937 
10:10	11.1	11.1	11.1	60	-0.0	3	7	315	0.00	29.937 
10:15	11.6	11.6	11.6	59	0.1	3	8	270	0.00	29.948 
10:20	11.7	4.6	11.7	57	-0.6	4	7	270	0.00	29.948 
10:25	11.7	11.7	11.7	58	-0.2	3	10	270	0.00	29.948 
10:30	11.7	11.7	11.7	59	0.2	3	6	270	0.00	29.955 
10:35	11.6	4.5	11.6	58	-0.3	4	14	292	0.00	29.955 
10:40	11.6	4.5	11.6	59	0.1	4	12	270	0.00	29.955 
10:45	11.7	4.6	11.7	59	0.2	4	9	292	0.00	29.966 
10:50	11.9	4.9	11.9	58	0.0	4	13	270	0.00	29.966 
10:55	11.7	3.2	11.7	59	0.2	5	11	270	0.00	29.966 
11:00	11.9	4.9	11.9	59	0.4	4	9	270	0.00	29.979 
11:05	11.9	4.9	11.9	60	0.7	4	9	292	0.00	29.979 
11:10	11.9	3.5	11.9	61	1.1	5	12	270	0.00	29.979 
11:15	12.3	12.3	12.3	60	1.1	3	5	248	0.00	29.989 
11:20	11.9	4.9	11.9	63	1.8	4	12	292	0.00	29.989 
11:25	11.4	11.4	11.4	68	2.9	3	7	292	0.00	29.989 
11:30	10.7	10.7	10.7	73	3.8	3	10	338	0.00	30.010 
11:35	10.4	10.4	10.4	75	4.1	3	10	315	0.00	30.010 
11:40	10.2	10.2	10.2	77	4.5	2	6	315	0.00	30.010 
11:45	10.0	10.0	10.0	78	4.5	3	6	315	0.00	30.019 
11:50	10.2	10.2	10.2	79	5.0	2	7	248	0.00	30.019 
11:55	10.5	10.5	10.5	79	5.3	2	5	270	0.00	30.019 
12:00	10.7	10.7	10.7	78	5.2	2	7	292	0.00	30.032 
12:05	10.7	10.7	10.7	77	4.9	3	9	292	0.00	30.032 
12:10	10.7	10.7	10.7	75	4.4	3	10	270	0.00	30.032 
12:15	11.1	11.1	11.1	73	4.2	3	7	292	0.00	30.030 
12:20	11.7	11.7	11.7	69	3.5	2	6	315	0.00	30.030 
12:25	11.9	4.9	11.9	65	2.4	4	15	270	0.00	30.030 
12:30	11.6	4.5	11.6	61	0.8	4	9	292	0.00	30.042 
12:35	11.7	11.7	11.7	58	-0.2	2	6	292	0.00	30.042 
12:40	11.7	11.7	11.7	54	-1.7	3	7	315	0.00	30.042 
12:45	12.6	12.6	12.6	54	-0.9	3	12	292	0.00	30.046 
12:50	13.3	13.3	13.3	58	1.3	3	7	270	0.00	30.046 
12:55	12.8	12.8	12.8	60	1.6	3	7	270	0.00	30.046 
13:00	11.9	11.9	11.9	65	2.4	3	10	292	0.00	30.058 
13:05	11.4	11.4	11.4	69	3.2	3	9	270	0.00	30.058 
13:10	11.2	11.2	11.2	70	3.4	2	6	292	0.00	30.058 
13:15	11.6	11.6	11.6	65	2.1	2	6	315	0.00	30.059 
13:20	11.4	11.4	11.4	58	-0.5	3	10	315	0.00	30.059 
13:25	11.9	4.9	11.9	57	-0.4	4	11	270	0.00	30.059 
13:30	11.7	4.6	11.7	56	-0.9	4	10	292	0.00	30.072 
13:35	11.2	4.0	11.2	54	-2.2	4	10	315	0.00	30.072 
13:40	11.6	11.6	11.6	54	-1.8	2	6	292	0.00	30.072 
13:45	12.1	12.1	12.1	53	-1.7	3	7	292	0.00	30.064 
13:50	12.6	12.6	12.6	52	-1.6	3	7	315	0.00	30.064 
13:55	12.6	12.6	12.6	50	-2.5	3	6	338	0.00	30.064 
14:00	13.3	13.3	13.3	51	-1.4	2	5	270	0.00	30.072 
14:05	12.9	12.9	12.9	46	-3.9	3	7	338	0.00	30.072 
14:10	12.6	12.6	12.6	45	-4.7	3	9	315	0.00	30.072 
14:15	12.9	12.9	12.9	46	-3.9	3	6	292	0.00	30.073 
14:20	13.5	13.5	13.5	50	-1.6	3	11	292	0.00	30.073 
14:25	13.1	13.1	13.1	53	-0.8	3	9	315	0.00	30.073 
14:30	12.3	12.3	12.3	52	-1.9	3	6	292	0.00	30.084 
14:35	11.9	11.9	11.9	54	-1.5	2	7	338	0.00	30.084 
14:40	11.4	11.4	11.4	55	-1.6	2	6	338	0.00	30.084 
14:45	11.4	11.4	11.4	54	-2.0	2	7	315	0.00	30.090 
14:50	11.2	4.0	11.2	53	-2.6	4	7	292	0.00	30.090 
14:55	11.7	11.7	11.7	53	-2.1	2	6	338	0.00	30.090 
15:00	11.6	11.6	11.6	53	-2.2	3	7	315	0.00	30.093 
15:05	11.9	11.9	11.9	55	-1.1	1	6	248	0.00	30.093 
15:10	12.4	12.4	12.4	53	-1.4	2	6	292	0.00	30.093 
15:15	12.8	12.8	12.8	51	-1.9	3	5	270	0.00	30.095 
15:20	12.8	12.8	12.8	49	-2.7	3	5	292	0.00	30.095 
15:25	12.6	12.6	12.6	50	-2.5	2	6	338	0.00	30.095 
15:30	12.6	12.6	12.6	49	-2.9	2	7	292	0.00	30.101 
15:35	12.9	12.9	12.9	47	-3.5	3	7	270	0.00	30.101 
15:40	12.4	12.4	12.4	46	-4.4	3	7	292	0.00	30.101 
15:45	12.1	12.1	12.1	47	-4.2	3	10	338	0.00	30.105 
15:50	12.3	12.3	12.3	48	-3.6	1	5	270	0.00	30.105 
15:55	12.6	12.6	12.6	49	-2.9	2	5	270	0.00	30.105 
16:00	12.9	12.9	12.9	54	-0.6	1	5	292	0.00	30.112 
16:05	12.4	12.4	12.4	58	0.5	1	4	315	0.00	30.112 
16:10	12.1	12.1	12.1	59	0.6	1	6	270	0.00	30.112 
16:15	11.6	11.6	11.6	57	-0.6	1	5	270	0.00	30.120 
16:20	11.4	11.4	11.4	57	-0.8	1	4	0	0.00	30.120 
16:25	11.1	11.1	11.1	58	-0.8	1	5	0	0.00	30.120 
16:30	11.1	11.1	11.1	59	-0.4	1	3	0	0.00	30.122 
16:35	10.9	10.9	10.9	60	-0.2	0	2	315	0.00	30.122 
16:40	10.9	10.9	10.9	61	0.1	1	3	315	0.00	30.122 
16:45	11.2	11.2	11.2	61	0.4	0	3	315	0.00	30.123 
16:50	11.6	11.6	11.6	60	0.4	1	3	315	0.00	30.123 
16:55	11.4	11.4	11.4	62	0.9	2	6	292	0.00	30.123 
17:00	10.9	10.9	10.9	65	1.5	1	5	338	0.00	30.134 
17:05	10.5	10.5	10.5	66	1.4	1	4	292	0.00	30.134 
17:10	10.4	10.4	10.4	64	0.7	1	4	315	0.00	30.134 
17:15	10.5	10.5	10.5	64	0.8	0	2	315	0.00	30.139 
17:20	10.5	10.5	10.5	59	-1.0	1	4	315	0.00	30.139 
17:25	10.4	10.4	10.4	57	-1.8	1	4	292	0.00	30.139 
17:30	10.5	10.5	10.5	56	-2.1	1	3	292	0.00	30.141 
17:35	10.5	10.5	10.5	54	-2.8	1	5	292	0.00	30.141 
17:40	10.5	10.5	10.5	52	-3.6	1	3	315	0.00	30.141 
17:45	10.5	10.5	10.5	51	-4.0	1	3	315	0.00	30.143 
17:50	10.5	10.5	10.5	51	-4.0	1	3	292	0.00	30.143 
17:55	10.4	10.4	10.4	50	-4.5	1	5	315	0.00	30.143 
18:00	10.4	10.4	10.4	50	-4.5	0	1	315	0.00	30.152 
18:05	10.2	10.2	10.2	50	-4.7	0	3	315	0.00	30.152 
18:10	10.2	10.2	10.2	50	-4.7	0	1	315	0.00	30.152 
18:15	10.0	10.0	10.0	51	-4.5	0	2	315	0.00	30.159 
18:20	9.7	9.7	9.7	51	-4.8	0	2	315	0.00	30.159 
18:25	9.5	9.5	9.5	52	-4.5	0	3	315	0.00	30.159 
18:30	9.3	9.3	9.3	53	-4.3	0	2	315	0.00	30.164 
18:35	9.2	9.2	9.2	54	-4.0	0	2	315	0.00	30.164 
18:40	9.0	9.0	9.0	54	-4.2	0	2	315	0.00	30.164 
18:45	8.8	8.8	8.8	54	-4.4	0	3	315	0.00	30.173 
18:50	8.8	8.8	8.8	54	-4.4	0	1	315	0.00	30.173 
18:55	8.6	8.6	8.6	54	-4.6	0	0	---	0.00	30.173 
19:00	8.3	8.3	8.3	55	-4.5	0	0	---	0.00	30.180 
19:05	8.1	8.1	8.1	55	-4.7	0	0	---	0.00	30.180 
19:10	7.9	7.9	7.9	56	-4.5	0	0	---	0.00	30.180 
19:15	7.7	7.7	7.7	57	-4.3	0	0	---	0.00	30.195 
19:20	7.6	7.6	7.6	57	-4.4	0	0	---	0.00	30.195 
19:25	7.4	7.4	7.4	57	-4.6	0	0	---	0.00	30.195 
19:30	7.4	7.4	7.4	58	-4.2	0	0	---	0.00	30.200 
19:35	7.0	7.0	7.0	58	-4.6	0	0	---	0.00	30.200 
19:40	6.9	6.9	6.9	58	-4.7	0	0	---	0.00	30.200 
19:45	6.5	6.5	6.5	59	-4.7	0	0	---	0.00	30.207 
19:50	6.1	6.1	6.1	60	-4.8	0	0	---	0.00	30.207 
19:55	6.0	6.0	6.0	61	-4.5	0	0	---	0.00	30.207 
20:00	5.8	5.8	5.8	61	-4.7	0	0	---	0.00	30.213 
20:05	5.8	5.8	5.8	62	-4.4	0	0	---	0.00	30.213 
20:10	5.8	5.8	5.8	62	-4.4	0	0	---	0.00	30.213 
20:15	5.6	5.6	5.6	62	-4.6	0	0	---	0.00	30.215 
20:20	5.2	5.2	5.2	62	-4.9	0	0	---	0.00	30.215 
20:25	4.8	4.8	4.8	63	-5.0	0	0	---	0.00	30.215 
20:30	4.5	4.5	4.5	63	-5.3	0	0	---	0.00	30.216 
20:35	3.9	3.9	3.9	63	-5.8	0	0	---	0.00	30.216 
20:40	3.5	3.5	3.5	64	-5.9	0	0	---	0.00	30.216 
20:45	3.4	3.4	3.4	65	-5.7	0	0	---	0.00	30.220 
20:50	3.4	3.4	3.4	65	-5.7	0	0	---	0.00	30.220 
20:55	3.2	3.2	3.2	66	-5.6	0	0	---	0.00	30.220 
21:00	3.2	3.2	3.2	66	-5.6	0	0	---	0.00	30.220 
21:05	3.0	3.0	3.0	66	-5.7	0	0	---	0.00	30.220 
21:10	3.0	3.0	3.0	66	-5.7	0	0	---	0.00	30.220 
21:15	2.6	2.6	2.6	66	-6.1	0	0	---	0.00	30.224 
21:20	2.4	2.4	2.4	67	-6.0	0	0	---	0.00	30.224 
21:25	2.0	2.0	2.0	67	-6.4	0	0	---	0.00	30.224 
21:30	2.0	2.0	2.0	68	-6.1	0	0	---	0.00	30.232 
21:35	1.7	1.7	1.7	68	-6.4	0	0	---	0.00	30.232 
21:40	1.5	1.5	1.5	68	-6.6	0	0	---	0.00	30.232 
21:45	1.3	1.3	1.3	69	-6.5	0	0	---	0.00	30.235 
21:50	1.1	1.1	1.1	69	-6.7	0	0	---	0.00	30.235 
21:55	0.9	0.9	0.9	69	-6.8	0	0	---	0.00	30.235 
22:00	0.7	0.7	0.7	70	-6.7	0	0	---	0.00	30.233 
22:05	0.5	0.5	0.5	70	-6.9	0	0	---	0.00	30.233 
22:10	0.3	0.3	0.3	70	-7.1	0	0	---	0.00	30.233 
22:15	0.1	0.1	0.1	70	-7.3	0	0	---	0.00	30.236 
22:20	0.0	0.0	0.0	71	-7.1	0	0	---	0.00	30.236 
22:25	-0.2	-0.2	-0.2	71	-7.3	0	0	---	0.00	30.236 
22:30	-0.2	-0.2	-0.2	72	-7.0	0	0	---	0.00	30.241 
22:35	-0.4	-0.4	-0.4	72	-7.2	0	0	---	0.00	30.241 
22:40	-0.6	-0.6	-0.6	72	-7.4	0	0	---	0.00	30.241 
22:45	-0.8	-0.8	-0.8	72	-7.6	0	0	---	0.00	30.247 
22:50	-1.0	-1.0	-1.0	72	-7.8	0	0	---	0.00	30.247 
22:55	-1.0	-1.0	-1.0	73	-7.5	0	0	---	0.00	30.247 
23:00	-1.2	-1.2	-1.2	73	-7.7	0	0	---	0.00	30.249 
23:05	-1.2	-1.2	-1.2	73	-7.7	0	0	---	0.00	30.249 
23:10	-1.2	-1.2	-1.2	74	-7.4	0	0	---	0.00	30.249 
23:15	-1.2	-1.2	-1.2	74	-7.4	0	0	---	0.00	30.250 
23:20	-1.2	-1.2	-1.2	74	-7.4	0	0	---	0.00	30.250 
23:25	-1.2	-1.2	-1.2	74	-7.4	0	0	---	0.00	30.250 
23:30	-1.4	-1.4	-1.4	74	-7.6	0	0	---	0.00	30.252 
23:35	-1.6	-1.6	-1.6	74	-7.8	0	0	---	0.00	30.252 
23:40	-1.8	-1.8	-1.8	74	-8.0	0	0	---	0.00	30.252 
23:45	-2.0	-2.0	-2.0	74	-8.2	0	0	---	0.00	30.260 
23:50	-2.0	-2.0	-2.0	75	-7.9	0	0	---	0.00	30.260 
23:55	-2.0	-2.0	-2.0	75	-7.9	0	0	---	0.00	30.260 

CoCoRaHS
IN-AL-39
A2 Web Hosting
Creative Commons License
GoDaddy
search engine by freefind advanced

loaded 2018-11-21 00:51:06 • last modified 2010-11-18 10:43:29
Privacy PolicyDisclaimer
• wx.awcolley.com is powered by PmWiki v.2002016 •
• all content (unless otherwise noted) © 2018 A W Colley